Time;durP1;ratioP1;P1;durP2;ratioP2;P2;SDS_P1;SDS_P2;PMS_P1;PMS_P2;Temp;Humidity;BMP_temperature;BMP_pressure;BME280_temperature;BME280_humidity;BME280_pressure;Samples;Min_cycle;Max_cycle;Signal;HPM_P1;HPM_P2
2021/09/26 00:01:53;;;;;;;2.00;1.00;;;;;;;;;;5069421;28;20107;-58
2021/09/26 00:04:20;;;;;;;2.37;1.07;;;;;;;;;;5071820;28;20499;-58
2021/09/26 00:06:47;;;;;;;1.93;0.90;;;;;;;;;;5074446;28;20066;-59
2021/09/26 00:09:14;;;;;;;2.70;1.03;;;;;;;;;;5074632;28;20024;-58
2021/09/26 00:11:42;;;;;;;2.23;1.20;;;;;;;;;;5074522;28;20107;-58
2021/09/26 00:14:09;;;;;;;2.10;1.27;;;;;;;;;;5074296;28;20016;-58
2021/09/26 00:16:36;;;;;;;2.80;1.20;;;;;;;;;;5071286;28;20031;-58
2021/09/26 00:19:03;;;;;;;3.20;1.00;;;;;;;;;;5069080;28;20028;-58
2021/09/26 00:21:30;;;;;;;3.83;1.47;;;;;;;;;;5068765;28;20036;-58
2021/09/26 00:23:57;;;;;;;2.50;1.07;;;;;;;;;;5068819;28;20032;-58
2021/09/26 00:26:24;;;;;;;2.43;1.10;;;;;;;;;;5071068;28;20035;-58
2021/09/26 00:28:51;;;;;;;2.80;1.50;;;;;;;;;;5073599;28;20023;-58
2021/09/26 00:31:18;;;;;;;1.40;1.03;;;;;;;;;;5074140;28;20431;-58
2021/09/26 00:33:45;;;;;;;3.73;1.10;;;;;;;;;;5073880;28;20548;-58
2021/09/26 00:36:11;;;;;;;3.03;1.10;;;;;;;;;;5074280;28;20493;-58
2021/09/26 00:38:38;;;;;;;3.47;0.80;;;;;;;;;;5071782;28;20031;-58
2021/09/26 00:41:05;;;;;;;1.77;1.17;;;;;;;;;;5068676;28;20047;-58
2021/09/26 00:43:32;;;;;;;0.80;0.40;;;;;;;;;;5068554;28;20108;-58
2021/09/26 00:45:58;;;;;;;1.73;0.80;;;;;;;;;;5068760;28;20103;-58
2021/09/26 00:48:25;;;;;;;1.40;0.67;;;;;;;;;;5070224;28;20020;-58
2021/09/26 00:50:52;;;;;;;0.80;0.50;;;;;;;;;;5073908;28;20020;-58
2021/09/26 00:53:20;;;;;;;0.50;0.47;;;;;;;;;;5073644;28;20361;-58
2021/09/26 00:55:47;;;;;;;0.80;0.43;;;;;;;;;;5073997;28;20356;-58
2021/09/26 00:58:14;;;;;;;2.63;0.40;;;;;;;;;;5073606;28;20099;-58
2021/09/26 01:00:41;;;;;;;1.47;0.53;;;;;;;;;;5071616;28;20489;-58
2021/09/26 01:03:08;;;;;;;1.50;0.70;;;;;;;;;;5068824;28;20375;-58
2021/09/26 01:05:35;;;;;;;1.30;0.50;;;;;;;;;;5068157;28;20380;-58
2021/09/26 01:08:22;;;;;;;1.23;0.73;;;;;;;;;;5067969;28;20036;-58
2021/09/26 01:10:58;;;;;;;1.10;0.40;;;;;;;;;;5069881;28;20499;-58
2021/09/26 01:13:43;;;;;;;1.40;0.50;;;;;;;;;;5073549;28;20131;-58
2021/09/26 01:16:31;;;;;;;0.52;0.40;;;;;;;;;;5073136;28;20032;-58
2021/09/26 01:19:02;;;;;;;2.53;0.40;;;;;;;;;;5073346;28;20522;-58
2021/09/26 01:21:32;;;;;;;5.87;0.70;;;;;;;;;;5073084;28;20075;-58
2021/09/26 01:24:28;;;;;;;8.50;2.20;;;;;;;;;;5068904;28;20037;-58
2021/09/26 01:27:07;;;;;;;1.50;0.80;;;;;;;;;;5046640;28;20495;-58
2021/09/26 01:29:40;;;;;;;4.80;2.23;;;;;;;;;;5067533;28;20039;-58
2021/09/26 01:32:08;;;;;;;5.10;2.00;;;;;;;;;;5067524;28;20027;-58
2021/09/26 01:34:39;;;;;;;5.53;1.70;;;;;;;;;;5072967;28;20052;-58
2021/09/26 01:37:21;;;;;;;4.43;2.40;;;;;;;;;;5073066;28;20029;-58
2021/09/26 01:39:48;;;;;;;29.07;6.77;;;;;;;;;;5072477;28;20021;-58
2021/09/26 01:42:20;;;;;;;11.43;1.93;;;;;;;;;;5072427;28;20032;-58
2021/09/26 01:44:46;;;;;;;6.93;1.73;;;;;;;;;;5072310;28;20368;-58
2021/09/26 01:47:16;;;;;;;6.27;1.63;;;;;;;;;;5067511;28;20531;-58
2021/09/26 01:49:48;;;;;;;6.27;2.03;;;;;;;;;;5067427;28;20102;-58
2021/09/26 01:52:16;;;;;;;6.00;1.97;;;;;;;;;;5067538;28;20033;-58
2021/09/26 01:54:43;;;;;;;3.43;2.03;;;;;;;;;;5067572;28;20048;-58
2021/09/26 01:57:10;;;;;;;4.70;2.30;;;;;;;;;;5072762;28;20036;-57
2021/09/26 01:59:37;;;;;;;6.90;2.03;;;;;;;;;;5072880;28;20020;-57
2021/09/26 02:02:05;;;;;;;5.73;1.83;;;;;;;;;;5072623;28;20033;-58
2021/09/26 02:04:33;;;;;;;10.87;2.70;;;;;;;;;;5072661;28;20029;-58
2021/09/26 02:07:01;;;;;;;6.23;1.87;;;;;;;;;;5070773;28;20028;-57
2021/09/26 02:09:28;;;;;;;8.03;2.10;;;;;;;;;;5066828;28;20380;-58
2021/09/26 02:11:55;;;;;;;10.73;2.40;;;;;;;;;;5067356;28;20034;-57
2021/09/26 02:14:22;;;;;;;10.70;2.80;;;;;;;;;;5067218;28;20020;-58
2021/09/26 02:16:49;;;;;;;4.73;2.20;;;;;;;;;;5067186;28;20021;-58
2021/09/26 02:19:16;;;;;;;5.20;2.93;;;;;;;;;;5072374;28;20021;-58
2021/09/26 02:21:43;;;;;;;8.63;2.57;;;;;;;;;;5072365;28;20108;-58
2021/09/26 02:24:10;;;;;;;7.20;2.60;;;;;;;;;;5072064;28;20112;-58
2021/09/26 02:26:37;;;;;;;10.93;2.47;;;;;;;;;;5071912;28;20100;-57
2021/09/26 02:29:04;;;;;;;5.97;2.20;;;;;;;;;;5072262;28;20028;-57
2021/09/26 02:31:31;;;;;;;8.00;2.40;;;;;;;;;;5066789;28;20028;-58
2021/09/26 02:33:58;;;;;;;6.43;2.23;;;;;;;;;;5066768;28;20021;-58
2021/09/26 02:36:25;;;;;;;5.57;2.23;;;;;;;;;;5066914;28;20024;-57
2021/09/26 02:38:52;;;;;;;7.43;2.70;;;;;;;;;;5066874;28;20043;-58
2021/09/26 02:41:34;;;;;;;5.83;2.80;;;;;;;;;;5071336;28;20036;-57
2021/09/26 02:44:19;;;;;;;6.80;2.57;;;;;;;;;;5072049;28;20349;-57
2021/09/26 02:46:48;;;;;;;5.43;2.40;;;;;;;;;;5072264;28;20415;-57
2021/09/26 02:49:15;;;;;;;5.30;2.80;;;;;;;;;;5071813;28;20028;-57
2021/09/26 02:51:42;;;;;;;7.23;2.57;;;;;;;;;;5070767;28;20028;-58
2021/09/26 02:54:09;;;;;;;9.30;3.47;;;;;;;;;;5070581;28;20522;-57
2021/09/26 02:56:36;;;;;;;13.13;3.50;;;;;;;;;;5070821;28;20549;-57
2021/09/26 02:59:04;;;;;;;7.67;2.40;;;;;;;;;;5070788;28;20024;-57
2021/09/26 03:01:30;;;;;;;6.80;2.53;;;;;;;;;;5070606;28;20123;-57
2021/09/26 03:04:01;;;;;;;7.90;3.17;;;;;;;;;;5076062;28;20036;-58
2021/09/26 03:06:28;;;;;;;10.07;2.60;;;;;;;;;;5075497;28;20036;-57
2021/09/26 03:08:54;;;;;;;10.23;2.67;;;;;;;;;;5076167;28;20024;-57
2021/09/26 03:11:21;;;;;;;5.57;2.60;;;;;;;;;;5075988;28;20021;-57
2021/09/26 03:13:48;;;;;;;6.57;2.77;;;;;;;;;;5075115;28;20546;-57
2021/09/26 03:16:15;;;;;;;5.20;2.43;;;;;;;;;;5070271;28;20021;-58
2021/09/26 03:18:42;;;;;;;4.83;2.17;;;;;;;;;;5070624;28;20116;-58
2021/09/26 03:21:08;;;;;;;4.33;2.03;;;;;;;;;;5070189;28;20044;-57
2021/09/26 03:23:35;;;;;;;6.17;2.40;;;;;;;;;;5070195;28;20036;-57
2021/09/26 03:26:02;;;;;;;9.20;2.37;;;;;;;;;;5075258;28;20021;-58
2021/09/26 03:28:29;;;;;;;10.13;3.40;;;;;;;;;;5075594;28;20353;-58
2021/09/26 03:30:55;;;;;;;5.30;2.27;;;;;;;;;;5075296;28;20028;-57
2021/09/26 03:33:22;;;;;;;5.33;2.10;;;;;;;;;;5075309;28;20017;-58
2021/09/26 03:35:49;;;;;;;8.80;3.00;;;;;;;;;;5075311;28;20529;-57
2021/09/26 03:38:16;;;;;;;6.03;2.27;;;;;;;;;;5069972;28;20052;-57
2021/09/26 03:40:43;;;;;;;10.90;2.27;;;;;;;;;;5069605;28;20112;-57
2021/09/26 03:43:09;;;;;;;4.43;2.00;;;;;;;;;;5069788;28;20021;-57
2021/09/26 03:45:36;;;;;;;3.87;2.20;;;;;;;;;;5069977;28;20024;-57
2021/09/26 03:48:03;;;;;;;7.40;2.37;;;;;;;;;;5074720;28;20074;-57
2021/09/26 03:50:30;;;;;;;4.23;1.70;;;;;;;;;;5075114;28;20150;-57
2021/09/26 03:52:56;;;;;;;5.10;1.90;;;;;;;;;;5074958;28;20032;-57
2021/09/26 03:55:23;;;;;;;4.13;2.20;;;;;;;;;;5074587;28;20101;-57
2021/09/26 03:57:50;;;;;;;6.50;2.23;;;;;;;;;;5075017;28;20020;-57
2021/09/26 04:00:19;;;;;;;4.23;2.10;;;;;;;;;;5069653;28;20043;-57
2021/09/26 04:02:46;;;;;;;5.43;2.27;;;;;;;;;;5069561;28;20037;-57
2021/09/26 04:05:13;;;;;;;6.00;2.30;;;;;;;;;;5069537;28;20032;-58
2021/09/26 04:07:40;;;;;;;7.57;3.57;;;;;;;;;;5069197;28;20021;-57
2021/09/26 04:10:07;;;;;;;6.63;2.30;;;;;;;;;;5073978;28;20031;-57
2021/09/26 04:12:34;;;;;;;4.60;2.50;;;;;;;;;;5074446;28;20495;-57
2021/09/26 04:15:01;;;;;;;8.40;2.63;;;;;;;;;;5074744;28;20493;-57
2021/09/26 04:17:28;;;;;;;5.40;2.67;;;;;;;;;;5074719;28;20044;-57
2021/09/26 04:19:55;;;;;;;6.83;2.47;;;;;;;;;;5074301;28;20032;-57
2021/09/26 04:22:22;;;;;;;5.70;2.40;;;;;;;;;;5069702;28;20106;-57
2021/09/26 04:24:49;;;;;;;6.80;2.23;;;;;;;;;;5068946;28;20119;-57
2021/09/26 04:27:15;;;;;;;6.37;2.43;;;;;;;;;;5069117;28;20043;-57
2021/09/26 04:29:42;;;;;;;7.30;2.13;;;;;;;;;;5069383;28;20031;-57
2021/09/26 04:32:09;;;;;;;4.80;2.13;;;;;;;;;;5072745;28;20033;-57
2021/09/26 04:34:36;;;;;;;5.47;2.30;;;;;;;;;;5074612;28;20032;-57
2021/09/26 04:37:03;;;;;;;3.70;2.10;;;;;;;;;;5074426;28;20078;-57
2021/09/26 04:39:30;;;;;;;3.93;2.03;;;;;;;;;;5074298;28;20033;-57
2021/09/26 04:41:57;;;;;;;7.30;2.23;;;;;;;;;;5073878;28;20033;-57
2021/09/26 04:44:24;;;;;;;3.93;2.20;;;;;;;;;;5069597;28;20050;-57
2021/09/26 04:46:50;;;;;;;7.73;2.43;;;;;;;;;;5068817;28;20020;-57
2021/09/26 04:49:17;;;;;;;4.03;2.40;;;;;;;;;;5068912;28;20031;-57
2021/09/26 04:51:44;;;;;;;5.47;2.67;;;;;;;;;;5068893;28;20027;-57
2021/09/26 04:54:11;;;;;;;4.53;2.50;;;;;;;;;;5071974;28;20025;-57
2021/09/26 04:56:37;;;;;;;6.27;2.73;;;;;;;;;;5074024;28;20019;-56
2021/09/26 04:59:04;;;;;;;3.20;2.10;;;;;;;;;;5073715;28;20024;-56
2021/09/26 05:01:31;;;;;;;8.87;2.80;;;;;;;;;;5073697;28;20391;-56
2021/09/26 05:03:58;;;;;;;5.03;2.70;;;;;;;;;;5073996;28;20510;-56
2021/09/26 05:06:24;;;;;;;19.67;3.30;;;;;;;;;;5070290;28;20471;-57
2021/09/26 05:08:51;;;;;;;6.17;2.40;;;;;;;;;;5068554;28;20498;-57
2021/09/26 05:11:18;;;;;;;3.93;2.50;;;;;;;;;;5067952;28;20020;-57
2021/09/26 05:13:45;;;;;;;7.83;2.23;;;;;;;;;;5068361;28;20025;-57
2021/09/26 05:16:12;;;;;;;4.63;2.33;;;;;;;;;;5070109;28;20021;-58
2021/09/26 05:18:38;;;;;;;4.40;2.50;;;;;;;;;;5073421;28;20025;-57
2021/09/26 05:21:05;;;;;;;6.37;2.20;;;;;;;;;;5073309;28;20029;-57
2021/09/26 05:23:34;;;;;;;9.33;2.47;;;;;;;;;;5073371;28;20028;-57
2021/09/26 05:26:01;;;;;;;3.97;2.40;;;;;;;;;;5073122;28;20025;-57
2021/09/26 05:28:28;;;;;;;6.87;2.63;;;;;;;;;;5070187;28;20031;-57
2021/09/26 05:30:55;;;;;;;10.93;2.30;;;;;;;;;;5067924;28;20032;-57
2021/09/26 05:33:21;;;;;;;4.47;2.57;;;;;;;;;;5067189;28;20028;-57
2021/09/26 05:35:48;;;;;;;5.63;2.83;;;;;;;;;;5068169;28;20024;-56
2021/09/26 05:38:15;;;;;;;5.60;2.53;;;;;;;;;;5070377;28;20024;-56
2021/09/26 05:40:42;;;;;;;6.93;2.50;;;;;;;;;;5072993;28;20032;-56
2021/09/26 05:43:09;;;;;;;6.70;3.00;;;;;;;;;;5073002;28;20480;-57
2021/09/26 05:45:36;;;;;;;6.23;2.70;;;;;;;;;;5073097;28;20036;-57
2021/09/26 05:48:02;;;;;;;3.83;2.43;;;;;;;;;;5072604;28;20020;-57
2021/09/26 05:50:29;;;;;;;4.00;2.37;;;;;;;;;;5070076;28;20028;-56
2021/09/26 05:52:56;;;;;;;5.37;2.17;;;;;;;;;;5067639;28;20020;-57
2021/09/26 05:55:23;;;;;;;4.13;2.03;;;;;;;;;;5067733;28;20039;-57
2021/09/26 05:57:50;;;;;;;4.97;2.50;;;;;;;;;;5067226;28;20093;-57
2021/09/26 06:00:17;;;;;;;4.67;1.90;;;;;;;;;;5069579;28;20028;-57
2021/09/26 06:02:45;;;;;;;9.30;2.80;;;;;;;;;;5072646;28;20032;-57
2021/09/26 06:05:12;;;;;;;4.93;2.17;;;;;;;;;;5071922;28;20395;-56
2021/09/26 06:07:39;;;;;;;10.57;2.20;;;;;;;;;;5072573;28;20024;-57
2021/09/26 06:10:06;;;;;;;9.40;3.03;;;;;;;;;;5072484;28;20037;-56
2021/09/26 06:12:33;;;;;;;4.00;2.23;;;;;;;;;;5070303;28;20653;-57
2021/09/26 06:15:00;;;;;;;10.63;2.37;;;;;;;;;;5067449;28;20514;-56
2021/09/26 06:17:27;;;;;;;4.60;2.40;;;;;;;;;;5067120;28;20387;-57
2021/09/26 06:19:53;;;;;;;3.90;2.40;;;;;;;;;;5067277;28;20539;-58
2021/09/26 06:22:20;;;;;;;3.63;2.07;;;;;;;;;;5068443;28;20487;-56
2021/09/26 06:24:48;;;;;;;3.20;1.70;;;;;;;;;;5072026;28;20041;-56
2021/09/26 06:27:15;;;;;;;6.17;1.90;;;;;;;;;;5071417;28;20113;-56
2021/09/26 06:29:42;;;;;;;4.17;2.13;;;;;;;;;;5072231;28;20017;-57
2021/09/26 06:32:08;;;;;;;3.33;1.80;;;;;;;;;;5072227;28;20029;-56
2021/09/26 06:34:36;;;;;;;6.23;2.07;;;;;;;;;;5070249;28;20032;-57
2021/09/26 06:37:03;;;;;;;3.30;1.97;;;;;;;;;;5066182;28;20024;-56
2021/09/26 06:39:30;;;;;;;6.73;1.80;;;;;;;;;;5066892;28;20028;-56
2021/09/26 06:41:56;;;;;;;6.80;1.90;;;;;;;;;;5066877;28;20545;-56
2021/09/26 06:44:23;;;;;;;4.30;1.60;;;;;;;;;;5068218;28;20438;-56
2021/09/26 06:46:50;;;;;;;6.17;1.87;;;;;;;;;;5071787;28;20036;-56
2021/09/26 06:49:17;;;;;;;6.00;1.80;;;;;;;;;;5071583;28;20095;-56
2021/09/26 06:51:44;;;;;;;3.07;1.80;;;;;;;;;;5072212;28;20025;-56
2021/09/26 06:54:10;;;;;;;4.03;1.70;;;;;;;;;;5071772;28;20036;-56
2021/09/26 06:56:37;;;;;;;3.97;1.50;;;;;;;;;;5070531;28;20021;-56
2021/09/26 06:59:04;;;;;;;2.93;1.77;;;;;;;;;;5066780;28;20020;-56
2021/09/26 07:01:33;;;;;;;3.00;1.60;;;;;;;;;;5066831;28;20040;-57
2021/09/26 07:04:01;;;;;;;2.73;1.67;;;;;;;;;;5066943;28;20506;-56
2021/09/26 07:06:28;;;;;;;3.10;1.83;;;;;;;;;;5067403;28;20043;-56
2021/09/26 07:08:54;;;;;;;3.43;1.63;;;;;;;;;;5071260;28;20020;-56
2021/09/26 07:11:21;;;;;;;2.90;1.80;;;;;;;;;;5072137;28;20083;-57
2021/09/26 07:13:48;;;;;;;4.43;1.70;;;;;;;;;;5071800;28;20028;-57
2021/09/26 07:16:15;;;;;;;2.37;1.50;;;;;;;;;;5071998;28;20056;-56
2021/09/26 07:18:42;;;;;;;5.93;2.07;;;;;;;;;;5070731;28;20035;-57
2021/09/26 07:21:12;;;;;;;3.17;1.70;;;;;;;;;;5048545;28;20040;-57
2021/09/26 07:23:38;;;;;;;4.03;1.90;;;;;;;;;;5066285;28;20029;-56
2021/09/26 07:26:05;;;;;;;3.67;1.93;;;;;;;;;;5066413;28;20044;-57
2021/09/26 07:28:32;;;;;;;3.90;1.90;;;;;;;;;;5066989;28;20028;-56
2021/09/26 07:30:59;;;;;;;4.23;1.77;;;;;;;;;;5071528;28;20089;-56
2021/09/26 07:33:26;;;;;;;5.83;2.10;;;;;;;;;;5071690;28;20025;-56
2021/09/26 07:35:53;;;;;;;4.50;1.83;;;;;;;;;;5070884;28;20033;-56
2021/09/26 07:38:19;;;;;;;4.23;1.93;;;;;;;;;;5071960;28;20013;-57
2021/09/26 07:40:46;;;;;;;5.37;2.00;;;;;;;;;;5074235;28;20379;-57
2021/09/26 07:43:13;;;;;;;2.53;1.60;;;;;;;;;;5070052;28;20410;-56
2021/09/26 07:45:40;;;;;;;2.67;1.67;;;;;;;;;;5070335;28;20028;-57
2021/09/26 07:48:07;;;;;;;3.20;1.80;;;;;;;;;;5070027;28;20668;-57
2021/09/26 07:50:34;;;;;;;4.00;2.07;;;;;;;;;;5070162;28;20024;-56
2021/09/26 07:53:01;;;;;;;5.07;2.30;;;;;;;;;;5075256;28;20064;-56
2021/09/26 07:55:27;;;;;;;3.10;1.67;;;;;;;;;;5075178;28;20035;-57
2021/09/26 07:57:54;;;;;;;3.77;2.20;;;;;;;;;;5074742;28;20020;-56
2021/09/26 08:00:21;;;;;;;4.00;2.10;;;;;;;;;;5075189;28;20029;-57
2021/09/26 08:02:48;;;;;;;4.90;2.00;;;;;;;;;;5074594;28;20104;-56
2021/09/26 08:05:15;;;;;;;3.90;1.80;;;;;;;;;;5069412;28;20027;-56
2021/09/26 08:07:41;;;;;;;3.93;1.77;;;;;;;;;;5069736;28;20111;-56
2021/09/26 08:10:09;;;;;;;5.03;2.10;;;;;;;;;;5069482;28;20032;-56
2021/09/26 08:12:36;;;;;;;2.80;1.57;;;;;;;;;;5069592;28;20063;-56
2021/09/26 08:15:05;;;;;;;4.50;1.90;;;;;;;;;;5074445;28;20109;-56
2021/09/26 08:17:32;;;;;;;4.30;1.80;;;;;;;;;;5074586;28;20064;-56
2021/09/26 08:19:59;;;;;;;4.93;1.97;;;;;;;;;;5074537;28;20029;-57
2021/09/26 08:22:27;;;;;;;2.73;1.50;;;;;;;;;;5074515;28;20032;-56
2021/09/26 08:24:56;;;;;;;2.67;1.77;;;;;;;;;;5074331;28;20514;-56
2021/09/26 08:27:23;;;;;;;4.00;1.90;;;;;;;;;;5068901;28;20078;-56
2021/09/26 08:29:50;;;;;;;3.13;1.80;;;;;;;;;;5069186;28;20501;-56
2021/09/26 08:32:17;;;;;;;2.87;1.57;;;;;;;;;;5069389;28;20431;-56
2021/09/26 08:34:44;;;;;;;3.97;1.67;;;;;;;;;;5069145;28;20472;-56
2021/09/26 08:37:11;;;;;;;3.90;1.97;;;;;;;;;;5073608;28;20032;-56
2021/09/26 08:39:40;;;;;;;3.67;1.97;;;;;;;;;;5074119;28;20123;-57
2021/09/26 08:42:06;;;;;;;4.67;1.90;;;;;;;;;;5074332;28;20488;-56
2021/09/26 08:44:33;;;;;;;3.27;2.07;;;;;;;;;;5073837;28;20021;-56
2021/09/26 08:47:00;;;;;;;3.57;2.13;;;;;;;;;;5074209;28;20021;-56
2021/09/26 08:49:28;;;;;;;2.80;1.90;;;;;;;;;;5068614;28;20028;-56
2021/09/26 08:51:55;;;;;;;4.87;1.90;;;;;;;;;;5068275;28;20040;-56
2021/09/26 08:54:21;;;;;;;3.27;1.90;;;;;;;;;;5068961;28;20025;-56
2021/09/26 08:56:49;;;;;;;3.37;1.67;;;;;;;;;;5068577;28;20472;-56
2021/09/26 08:59:15;;;;;;;4.33;1.90;;;;;;;;;;5073061;28;20027;-56
2021/09/26 09:01:42;;;;;;;3.77;1.73;;;;;;;;;;5073705;28;20035;-56
2021/09/26 09:04:09;;;;;;;3.70;1.80;;;;;;;;;;5073894;28;20550;-56
2021/09/26 09:06:46;;;;;;;3.87;2.00;;;;;;;;;;5073850;28;20020;-56
2021/09/26 09:09:19;;;;;;;5.47;1.97;;;;;;;;;;5073708;28;20021;-56
2021/09/26 09:12:05;;;;;;;5.70;1.53;;;;;;;;;;5068250;28;20032;-57
2021/09/26 09:14:52;;;;;;;4.80;1.90;;;;;;;;;;5067880;28;20025;-56
2021/09/26 09:17:48;;;;;;;3.93;1.80;;;;;;;;;;5068437;28;20514;-56
2021/09/26 09:20:20;;;;;;;3.37;1.70;;;;;;;;;;5048661;28;20040;-57
2021/09/26 09:22:49;;;;;;;3.10;1.63;;;;;;;;;;5073536;28;20024;-56
2021/09/26 09:25:31;;;;;;;3.30;1.80;;;;;;;;;;5073330;28;20033;-56
2021/09/26 09:27:58;;;;;;;4.70;1.80;;;;;;;;;;5073035;28;20032;-57
2021/09/26 09:30:44;;;;;;;7.63;1.73;;;;;;;;;;5072475;28;20031;-57
2021/09/26 09:33:10;;;;;;;;;;;;;;;;;;5069622;28;20024;-56
2021/09/26 09:35:44;;;;;;;6.57;2.13;;;;;;;;;;5067894;28;19905;-56
2021/09/26 09:38:12;;;;;;;3.70;1.90;;;;;;;;;;5067978;28;20024;-56
2021/09/26 09:40:39;;;;;;;3.90;1.60;;;;;;;;;;5067855;28;20586;-56
2021/09/26 09:43:06;;;;;;;7.87;1.70;;;;;;;;;;5070745;28;20023;-56
2021/09/26 09:45:34;;;;;;;2.90;1.70;;;;;;;;;;5072853;28;20025;-56
2021/09/26 09:48:12;;;;;;;5.00;2.20;;;;;;;;;;5072779;28;20039;-56
2021/09/26 09:50:53;;;;;;;2.63;1.70;;;;;;;;;;5072261;28;20035;-56
2021/09/26 09:53:21;;;;;;;3.23;1.73;;;;;;;;;;5072637;28;20037;-56
2021/09/26 09:56:06;;;;;;;4.17;1.90;;;;;;;;;;5068827;28;20060;-56
2021/09/26 09:58:35;;;;;;;14.52;2.20;;;;;;;;;;5067490;28;20024;-56
2021/09/26 10:01:02;;;;;;;3.10;1.90;;;;;;;;;;5067445;28;20039;-56
2021/09/26 10:03:35;;;;;;;3.00;1.83;;;;;;;;;;5067541;28;20032;-56
2021/09/26 10:06:22;;;;;;;2.90;1.67;;;;;;;;;;5071885;28;20111;-56
2021/09/26 10:08:49;;;;;;;3.30;1.90;;;;;;;;;;5072155;28;20051;-57
2021/09/26 10:11:16;;;;;;;2.87;1.67;;;;;;;;;;5072533;28;20023;-57
2021/09/26 10:13:42;;;;;;;6.20;2.00;;;;;;;;;;5072520;28;20496;-56
2021/09/26 10:16:10;;;;;;;4.33;1.97;;;;;;;;;;5072036;28;20034;-56
2021/09/26 10:18:38;;;;;;;4.00;2.10;;;;;;;;;;5067326;28;20158;-56
2021/09/26 10:21:06;;;;;;;6.33;2.00;;;;;;;;;;5067174;28;20464;-56
2021/09/26 10:23:34;;;;;;;3.67;1.90;;;;;;;;;;5066603;28;20103;-56
2021/09/26 10:26:01;;;;;;;5.17;1.83;;;;;;;;;;5066813;28;20395;-57
2021/09/26 10:28:29;;;;;;;4.00;1.90;;;;;;;;;;5072055;28;20027;-57
2021/09/26 10:30:57;;;;;;;5.83;1.80;;;;;;;;;;5072390;28;20020;-56
2021/09/26 10:33:27;;;;;;;3.77;1.83;;;;;;;;;;5072194;28;20415;-56
2021/09/26 10:35:55;;;;;;;4.10;1.60;;;;;;;;;;5072262;28;20020;-57
2021/09/26 10:38:23;;;;;;;4.67;1.70;;;;;;;;;;5071678;28;20510;-56
2021/09/26 10:40:51;;;;;;;2.80;1.53;;;;;;;;;;5066820;28;20025;-57
2021/09/26 10:43:24;;;;;;;3.40;1.60;;;;;;;;;;5046984;28;20065;-56
2021/09/26 10:46:11;;;;;;;4.63;1.83;;;;;;;;;;5046867;28;20104;-57
2021/09/26 10:48:56;;;;;;;4.83;1.70;;;;;;;;;;5046983;28;20074;-56
2021/09/26 10:51:42;;;;;;;5.07;1.75;;;;;;;;;;5051821;28;20079;-57
2021/09/26 10:54:26;;;;;;;2.83;1.50;;;;;;;;;;5052192;28;20021;-56
2021/09/26 10:57:18;;;;;;;2.90;1.63;;;;;;;;;;5051716;28;20051;-56
2021/09/26 10:59:49;;;;;;;3.07;1.53;;;;;;;;;;5051972;28;20040;-56
2021/09/26 11:02:28;;;;;;;4.43;2.17;;;;;;;;;;5047597;28;20033;-56
2021/09/26 11:04:59;;;;;;;4.90;1.57;;;;;;;;;;5046715;28;20037;-57
2021/09/26 11:07:27;;;;;;;4.47;1.80;;;;;;;;;;5053658;28;20037;-56
2021/09/26 11:09:55;;;;;;;7.17;2.13;;;;;;;;;;5066499;28;20041;-58
2021/09/26 11:12:38;;;;;;;2.83;1.53;;;;;;;;;;5070302;28;20024;-56
2021/09/26 11:15:08;;;;;;;4.00;1.77;;;;;;;;;;5075234;28;20089;-56
2021/09/26 11:17:47;;;;;;;4.27;1.90;;;;;;;;;;5075856;28;20043;-56
2021/09/26 11:20:26;;;;;;;2.77;1.67;;;;;;;;;;5075927;28;20024;-56
2021/09/26 11:23:08;;;;;;;3.60;1.80;;;;;;;;;;5075306;28;20060;-56
2021/09/26 11:25:53;;;;;;;6.07;1.97;;;;;;;;;;5070357;28;20032;-56
2021/09/26 11:28:28;;;;;;;3.80;1.77;;;;;;;;;;5070269;28;20096;-56
2021/09/26 11:30:55;;;;;;;8.27;2.17;;;;;;;;;;5070211;28;20122;-56
2021/09/26 11:33:22;;;;;;;4.50;1.67;;;;;;;;;;5071162;28;20033;-56
2021/09/26 11:35:49;;;;;;;5.20;2.23;;;;;;;;;;5075618;28;20055;-56
2021/09/26 11:38:19;;;;;;;4.53;1.90;;;;;;;;;;5075584;28;20031;-57
2021/09/26 11:40:51;;;;;;;4.33;2.40;;;;;;;;;;5075022;28;20037;-56
2021/09/26 11:43:25;;;;;;;6.20;1.97;;;;;;;;;;5075447;28;20028;-56
2021/09/26 11:45:55;;;;;;;3.10;1.60;;;;;;;;;;5073380;28;20472;-56
2021/09/26 11:48:29;;;;;;;4.10;1.77;;;;;;;;;;5069971;28;20470;-56
2021/09/26 11:50:56;;;;;;;4.10;2.28;;;;;;;;;;5070152;28;20488;-56
2021/09/26 11:53:24;;;;;;;3.00;1.77;;;;;;;;;;5069523;28;20078;-57
2021/09/26 11:55:51;;;;;;;2.30;1.50;;;;;;;;;;5071764;28;20096;-57
2021/09/26 11:58:17;;;;;;;5.50;2.50;;;;;;;;;;5075084;28;20031;-57
2021/09/26 12:00:44;;;;;;;3.57;1.97;;;;;;;;;;5074970;28;20028;-57
2021/09/26 12:03:27;;;;;;;4.33;2.53;;;;;;;;;;5075518;28;20029;-56
2021/09/26 12:05:55;;;;;;;3.67;2.20;;;;;;;;;;5074485;28;20434;-57
2021/09/26 12:08:22;;;;;;;4.07;2.03;;;;;;;;;;5072085;28;20024;-57
2021/09/26 12:10:49;;;;;;;3.90;2.23;;;;;;;;;;5069698;28;20013;-57
2021/09/26 12:13:18;;;;;;;4.23;2.73;;;;;;;;;;5069570;28;20395;-57
2021/09/26 12:15:45;;;;;;;4.33;1.90;;;;;;;;;;5069664;28;20020;-57
2021/09/26 12:18:21;;;;;;;3.57;1.87;;;;;;;;;;5071484;28;20028;-57
2021/09/26 12:20:48;;;;;;;3.50;1.70;;;;;;;;;;5074617;28;20021;-56
2021/09/26 12:23:27;;;;;;;3.33;2.10;;;;;;;;;;5074512;28;20132;-57
2021/09/26 12:26:01;;;;;;;7.67;1.97;;;;;;;;;;5073075;28;20035;-57
2021/09/26 12:28:28;;;;;;;3.45;2.15;;;;;;;;;;5074665;28;20025;-56
2021/09/26 12:30:57;;;;;;;5.90;2.50;;;;;;;;;;5071052;28;20092;-57
2021/09/26 12:33:45;;;;;;;5.83;2.27;;;;;;;;;;5069306;28;20024;-56
2021/09/26 12:36:16;;;;;;;4.80;2.30;;;;;;;;;;5069260;28;20454;-57
2021/09/26 12:38:51;;;;;;;3.43;2.13;;;;;;;;;;5068585;28;20379;-57
2021/09/26 12:41:20;;;;;;;5.60;2.58;;;;;;;;;;5072822;28;20032;-57
2021/09/26 12:43:47;;;;;;;5.57;2.43;;;;;;;;;;5074425;28;20387;-57
2021/09/26 12:46:16;;;;;;;3.80;2.07;;;;;;;;;;5074342;28;20517;-57
2021/09/26 12:48:45;;;;;;;3.07;2.00;;;;;;;;;;5074129;28;20487;-56
2021/09/26 12:51:14;;;;;;;3.37;2.00;;;;;;;;;;5074141;28;20060;-57
2021/09/26 12:53:43;;;;;;;5.43;2.33;;;;;;;;;;5069336;28;20063;-57
2021/09/26 12:56:10;;;;;;;4.20;2.10;;;;;;;;;;5068524;28;20376;-57
2021/09/26 12:58:37;;;;;;;6.07;2.60;;;;;;;;;;5068881;28;20025;-57
2021/09/26 13:01:13;;;;;;;4.20;2.53;;;;;;;;;;5068803;28;20065;-57
2021/09/26 13:03:49;;;;;;;5.27;2.83;;;;;;;;;;5072453;28;20479;-57
2021/09/26 13:06:23;;;;;;;4.67;2.40;;;;;;;;;;5073778;28;20045;-57
2021/09/26 13:08:49;;;;;;;3.23;2.10;;;;;;;;;;5073888;28;20039;-56
2021/09/26 13:11:22;;;;;;;5.00;2.53;;;;;;;;;;5073645;28;20025;-56
2021/09/26 13:14:01;;;;;;;5.17;2.63;;;;;;;;;;5073577;28;20028;-57
2021/09/26 13:16:30;;;;;;;5.20;2.30;;;;;;;;;;5068480;28;20483;-57
2021/09/26 13:18:58;;;;;;;5.20;2.00;;;;;;;;;;5068457;28;20032;-57
2021/09/26 13:21:25;;;;;;;6.00;2.33;;;;;;;;;;5068242;28;20064;-57
2021/09/26 13:24:00;;;;;;;4.37;1.77;;;;;;;;;;5068143;28;20037;-57
2021/09/26 13:26:26;;;;;;;;;;;;;;;;;;5073934;28;20480;-56
2021/09/26 13:28:55;;;;;;;2.73;1.50;;;;;;;;;;5072534;28;19912;-57
2021/09/26 13:31:31;;;;;;;3.13;1.90;;;;;;;;;;5073259;28;20356;-57
2021/09/26 13:34:00;;;;;;;3.43;1.60;;;;;;;;;;5073326;28;20021;-57
2021/09/26 13:36:33;;;;;;;7.43;1.70;;;;;;;;;;5071838;28;20032;-57
2021/09/26 13:39:01;;;;;;;2.63;1.40;;;;;;;;;;5067965;28;20534;-57
2021/09/26 13:41:28;;;;;;;5.07;1.90;;;;;;;;;;5067664;28;20566;-57
2021/09/26 13:44:08;;;;;;;2.80;1.57;;;;;;;;;;5068075;28;20786;-57
2021/09/26 13:46:35;;;;;;;4.57;1.80;;;;;;;;;;5068304;28;20424;-57
2021/09/26 13:49:02;;;;;;;3.60;2.03;;;;;;;;;;5072896;28;20054;-57
2021/09/26 13:51:30;;;;;;;3.83;2.00;;;;;;;;;;5072872;28;20436;-57
2021/09/26 13:53:57;;;;;;;2.53;1.60;;;;;;;;;;5072387;28;20021;-57
2021/09/26 13:56:24;;;;;;;2.43;1.43;;;;;;;;;;5072716;28;20426;-57
2021/09/26 13:58:51;;;;;;;3.30;1.50;;;;;;;;;;5071994;28;20060;-57
2021/09/26 14:01:18;;;;;;;3.03;1.60;;;;;;;;;;5067234;28;20040;-57
2021/09/26 14:03:45;;;;;;;2.77;1.40;;;;;;;;;;5067338;28;20020;-57
2021/09/26 14:06:13;;;;;;;2.60;1.50;;;;;;;;;;5067396;28;20025;-57
2021/09/26 14:08:40;;;;;;;2.10;1.40;;;;;;;;;;5067442;28;20035;-57
2021/09/26 14:11:07;;;;;;;4.07;1.70;;;;;;;;;;5072634;28;20103;-57
2021/09/26 14:13:34;;;;;;;2.47;1.50;;;;;;;;;;5072340;28;20025;-57
2021/09/26 14:16:01;;;;;;;2.53;1.47;;;;;;;;;;5072459;28;20020;-57
2021/09/26 14:18:29;;;;;;;2.40;1.17;;;;;;;;;;5072680;28;20100;-57
2021/09/26 14:20:56;;;;;;;2.93;1.50;;;;;;;;;;5071021;28;20059;-57
2021/09/26 14:23:23;;;;;;;2.10;1.10;;;;;;;;;;5067128;28;20386;-57
2021/09/26 14:25:49;;;;;;;2.97;1.50;;;;;;;;;;5067249;28;20032;-57
2021/09/26 14:28:16;;;;;;;3.33;1.50;;;;;;;;;;5067322;28;20371;-57
2021/09/26 14:30:43;;;;;;;1.93;1.13;;;;;;;;;;5067421;28;20031;-58
2021/09/26 14:33:10;;;;;;;2.30;1.47;;;;;;;;;;5072276;28;20020;-58
2021/09/26 14:35:37;;;;;;;2.43;1.20;;;;;;;;;;5072384;28;20019;-58
2021/09/26 14:38:05;;;;;;;2.20;1.20;;;;;;;;;;5072073;28;20467;-57
2021/09/26 14:40:32;;;;;;;3.47;1.53;;;;;;;;;;5072130;28;20055;-58
2021/09/26 14:42:59;;;;;;;3.13;1.47;;;;;;;;;;5071836;28;20036;-58
2021/09/26 14:45:27;;;;;;;2.40;1.07;;;;;;;;;;5067023;28;20036;-57
2021/09/26 14:47:54;;;;;;;8.27;1.33;;;;;;;;;;5066248;28;20081;-57
2021/09/26 14:50:21;;;;;;;3.80;1.40;;;;;;;;;;5067027;28;20025;-58
2021/09/26 14:52:48;;;;;;;2.40;1.53;;;;;;;;;;5066572;28;20020;-58
2021/09/26 14:55:16;;;;;;;2.40;1.40;;;;;;;;;;5071611;28;20492;-58